Time;durP1;ratioP1;P1;durP2;ratioP2;P2;SDS_P1;SDS_P2;PMS_P1;PMS_P2;Temp;Humidity;BMP_temperature;BMP_pressure;BME280_temperature;BME280_humidity;BME280_pressure;Samples;Min_cycle;Max_cycle;Signal;HPM_P1;HPM_P2
2021/09/24 00:01:15;;;;;;;7.63;4.55;;;;;;;;;;5012945;28;20112;-77
2021/09/24 00:03:41;;;;;;;4.72;3.50;;;;;;;;;;5005627;28;20025;-77
2021/09/24 00:06:07;;;;;;;9.70;3.97;;;;;;;;;;5013445;28;20030;-77
2021/09/24 00:08:33;;;;;;;9.63;4.75;;;;;;;;;;4995602;28;20034;-77
2021/09/24 00:10:59;;;;;;;4.35;3.45;;;;;;;;;;5013396;28;20525;-77
2021/09/24 00:13:26;;;;;;;6.35;4.25;;;;;;;;;;5013045;28;20034;-77
2021/09/24 00:15:52;;;;;;;9.27;4.15;;;;;;;;;;4979504;28;20030;-77
2021/09/24 00:18:18;;;;;;;5.30;4.10;;;;;;;;;;5001093;28;20033;-77
2021/09/24 00:20:45;;;;;;;7.43;3.92;;;;;;;;;;5012972;28;20026;-77
2021/09/24 00:23:11;;;;;;;10.73;4.40;;;;;;;;;;5013086;28;20113;-77
2021/09/24 00:25:37;;;;;;;8.00;4.03;;;;;;;;;;5009445;28;20097;-77
2021/09/24 00:28:05;;;;;;;6.78;4.38;;;;;;;;;;4993273;28;20053;-77
2021/09/24 00:30:32;;;;;;;5.35;4.50;;;;;;;;;;5001966;28;20054;-77
2021/09/24 00:32:58;;;;;;;7.55;4.53;;;;;;;;;;5013008;28;20087;-77
2021/09/24 00:35:24;;;;;;;7.47;4.80;;;;;;;;;;5012254;28;20112;-77
2021/09/24 00:37:50;;;;;;;5.72;4.22;;;;;;;;;;5012630;28;20113;-76
2021/09/24 00:40:16;;;;;;;7.00;5.10;;;;;;;;;;4998163;28;20057;-77
2021/09/24 00:42:42;;;;;;;6.50;4.32;;;;;;;;;;5007061;28;20030;-76
2021/09/24 00:45:08;;;;;;;7.28;5.03;;;;;;;;;;5011896;28;20395;-77
2021/09/24 00:47:34;;;;;;;7.95;4.72;;;;;;;;;;5012587;28;20037;-77
2021/09/24 00:50:00;;;;;;;7.55;4.65;;;;;;;;;;5012455;28;20022;-76
2021/09/24 00:52:28;;;;;;;5.55;4.38;;;;;;;;;;4994842;28;20021;-77
2021/09/24 00:54:54;;;;;;;5.88;4.53;;;;;;;;;;5005197;28;20434;-77
2021/09/24 00:57:21;;;;;;;6.38;4.95;;;;;;;;;;5001690;28;20110;-77
2021/09/24 00:59:48;;;;;;;6.40;5.30;;;;;;;;;;4992587;28;20018;-77
2021/09/24 01:02:14;;;;;;;5.57;4.70;;;;;;;;;;4993042;28;20050;-77
2021/09/24 01:04:40;;;;;;;6.10;5.20;;;;;;;;;;5001495;28;20135;-77
2021/09/24 01:07:07;;;;;;;8.32;5.05;;;;;;;;;;5012172;28;20053;-77
2021/09/24 01:09:34;;;;;;;8.52;4.95;;;;;;;;;;5012078;28;20089;-76
2021/09/24 01:12:00;;;;;;;6.80;5.50;;;;;;;;;;5012305;28;20113;-77
2021/09/24 01:14:29;;;;;;;6.80;4.70;;;;;;;;;;4997545;28;20042;-77
2021/09/24 01:16:56;;;;;;;6.80;5.13;;;;;;;;;;4992463;28;20398;-76
2021/09/24 01:19:22;;;;;;;7.60;6.00;;;;;;;;;;4999047;28;20045;-76
2021/09/24 01:21:48;;;;;;;8.50;5.68;;;;;;;;;;4995601;28;20031;-77
2021/09/24 01:24:14;;;;;;;7.10;5.60;;;;;;;;;;4998924;28;20049;-77
2021/09/24 01:26:51;;;;;;;6.80;5.35;;;;;;;;;;4991417;28;20531;-76
2021/09/24 01:29:18;;;;;;;7.22;5.28;;;;;;;;;;4994502;28;20077;-77
2021/09/24 01:31:44;;;;;;;7.05;5.57;;;;;;;;;;4993288;28;20039;-76
2021/09/24 01:34:10;;;;;;;6.30;5.18;;;;;;;;;;4976074;28;20411;-77
2021/09/24 01:36:36;;;;;;;6.97;5.65;;;;;;;;;;4995237;28;20113;-77
2021/09/24 01:39:09;;;;;;;10.80;5.40;;;;;;;;;;5001096;28;20026;-76
2021/09/24 01:41:39;;;;;;;6.88;5.13;;;;;;;;;;5016251;28;20030;-76
2021/09/24 01:44:05;;;;;;;6.65;5.13;;;;;;;;;;4998228;28;20102;-77
2021/09/24 01:46:31;;;;;;;7.03;5.50;;;;;;;;;;4997447;28;20081;-76
2021/09/24 01:48:57;;;;;;;7.32;5.63;;;;;;;;;;5000735;28;20055;-76
2021/09/24 01:51:23;;;;;;;8.45;5.38;;;;;;;;;;5015190;28;20080;-76
2021/09/24 01:53:49;;;;;;;7.00;5.50;;;;;;;;;;5015515;28;20037;-76
2021/09/24 01:56:15;;;;;;;9.25;5.03;;;;;;;;;;5011281;28;20041;-76
2021/09/24 01:58:41;;;;;;;7.78;5.60;;;;;;;;;;5015577;28;20029;-76
2021/09/24 02:01:07;;;;;;;8.15;5.45;;;;;;;;;;5010289;28;20122;-76
2021/09/24 02:03:33;;;;;;;7.50;5.50;;;;;;;;;;5016107;28;20026;-76
2021/09/24 02:05:59;;;;;;;7.80;5.95;;;;;;;;;;5021815;28;20088;-76
2021/09/24 02:08:25;;;;;;;9.65;5.53;;;;;;;;;;5011677;28;20030;-76
2021/09/24 02:10:51;;;;;;;10.23;5.55;;;;;;;;;;4999405;28;20034;-76
2021/09/24 02:13:17;;;;;;;8.02;5.45;;;;;;;;;;4995908;28;20024;-76
2021/09/24 02:15:43;;;;;;;9.95;6.00;;;;;;;;;;5003141;28;20045;-76
2021/09/24 02:18:09;;;;;;;9.00;5.78;;;;;;;;;;4996357;28;20039;-76
2021/09/24 02:20:35;;;;;;;7.13;5.65;;;;;;;;;;4995254;28;20026;-76
2021/09/24 02:23:01;;;;;;;8.13;5.47;;;;;;;;;;4995702;28;20030;-76
2021/09/24 02:25:27;;;;;;;9.60;5.82;;;;;;;;;;4995577;28;20058;-76
2021/09/24 02:27:53;;;;;;;11.48;5.40;;;;;;;;;;4995460;28;20038;-76
2021/09/24 02:30:19;;;;;;;8.65;5.53;;;;;;;;;;5003714;28;20081;-77
2021/09/24 02:32:45;;;;;;;8.65;5.10;;;;;;;;;;5015064;28;20032;-77
2021/09/24 02:35:11;;;;;;;6.57;5.10;;;;;;;;;;4997064;28;20022;-77
2021/09/24 02:37:37;;;;;;;6.95;4.90;;;;;;;;;;4997486;28;20029;-77
2021/09/24 02:40:04;;;;;;;7.05;5.53;;;;;;;;;;4987206;28;20030;-77
2021/09/24 02:42:30;;;;;;;7.03;5.25;;;;;;;;;;4995363;28;20475;-77
2021/09/24 02:44:56;;;;;;;7.20;5.20;;;;;;;;;;4994859;28;20026;-77
2021/09/24 02:47:21;;;;;;;6.95;5.35;;;;;;;;;;4994784;28;20026;-77
2021/09/24 02:49:48;;;;;;;7.05;5.50;;;;;;;;;;5008460;28;20084;-77
2021/09/24 02:52:14;;;;;;;6.90;5.57;;;;;;;;;;5014642;28;20030;-77
2021/09/24 02:54:40;;;;;;;7.10;4.95;;;;;;;;;;5014020;28;20029;-77
2021/09/24 02:57:06;;;;;;;7.05;5.35;;;;;;;;;;5013935;28;20022;-77
2021/09/24 02:59:32;;;;;;;7.50;5.63;;;;;;;;;;5013562;28;20041;-77
2021/09/24 03:01:58;;;;;;;8.23;5.60;;;;;;;;;;5014048;28;20044;-77
2021/09/24 03:04:27;;;;;;;7.70;5.82;;;;;;;;;;5004761;28;20030;-77
2021/09/24 03:06:54;;;;;;;8.82;6.00;;;;;;;;;;5014019;28;20032;-77
2021/09/24 03:09:20;;;;;;;7.20;5.72;;;;;;;;;;5007369;28;20054;-77
2021/09/24 03:11:46;;;;;;;9.05;5.75;;;;;;;;;;4994667;28;20034;-77
2021/09/24 03:14:12;;;;;;;7.10;5.85;;;;;;;;;;4994482;28;20407;-77
2021/09/24 03:16:38;;;;;;;8.82;6.22;;;;;;;;;;4994253;28;20043;-77
2021/09/24 03:19:05;;;;;;;8.40;6.15;;;;;;;;;;4987949;28;20506;-77
2021/09/24 03:21:31;;;;;;;7.25;5.70;;;;;;;;;;5014020;28;20045;-77
2021/09/24 03:23:57;;;;;;;8.57;6.25;;;;;;;;;;5010689;28;20483;-77
2021/09/24 03:26:23;;;;;;;8.73;6.03;;;;;;;;;;4996517;28;20034;-77
2021/09/24 03:28:49;;;;;;;8.05;6.25;;;;;;;;;;5012949;28;20038;-77
2021/09/24 03:31:16;;;;;;;9.88;6.13;;;;;;;;;;5011718;28;20037;-77
2021/09/24 03:33:42;;;;;;;8.93;6.00;;;;;;;;;;4996322;28;20030;-77
2021/09/24 03:36:08;;;;;;;7.95;5.88;;;;;;;;;;5013783;28;20029;-77
2021/09/24 03:38:34;;;;;;;9.20;6.13;;;;;;;;;;5013250;28;20487;-77
2021/09/24 03:41:00;;;;;;;9.75;6.32;;;;;;;;;;5012723;28;20049;-77
2021/09/24 03:43:26;;;;;;;7.47;5.88;;;;;;;;;;5003971;28;20108;-77
2021/09/24 03:45:52;;;;;;;6.40;5.30;;;;;;;;;;5011156;28;20110;-77
2021/09/24 03:48:18;;;;;;;8.57;6.65;;;;;;;;;;4993927;28;20046;-77
2021/09/24 03:50:44;;;;;;;8.75;6.15;;;;;;;;;;5010776;28;20069;-77
2021/09/24 03:53:10;;;;;;;8.45;6.43;;;;;;;;;;5013507;28;20038;-77
2021/09/24 03:55:36;;;;;;;6.78;5.82;;;;;;;;;;5012745;28;20109;-77
2021/09/24 03:58:02;;;;;;;8.27;6.05;;;;;;;;;;5012724;28;20046;-77
2021/09/24 04:00:28;;;;;;;9.50;6.65;;;;;;;;;;5007948;28;20026;-77
2021/09/24 04:02:54;;;;;;;10.15;6.55;;;;;;;;;;4993663;28;20030;-77
2021/09/24 04:05:20;;;;;;;10.98;6.85;;;;;;;;;;4987970;28;20037;-77
2021/09/24 04:07:46;;;;;;;8.13;6.32;;;;;;;;;;4995423;28;20113;-77
2021/09/24 04:10:12;;;;;;;11.23;7.55;;;;;;;;;;5012502;28;20498;-77
2021/09/24 04:12:38;;;;;;;9.30;7.43;;;;;;;;;;4999604;28;20033;-77
2021/09/24 04:15:05;;;;;;;11.73;7.47;;;;;;;;;;4993645;28;20407;-77
2021/09/24 04:17:31;;;;;;;12.52;7.85;;;;;;;;;;4994325;28;20045;-76
2021/09/24 04:19:57;;;;;;;10.43;7.30;;;;;;;;;;4992817;28;20034;-77
2021/09/24 04:22:23;;;;;;;11.50;7.85;;;;;;;;;;4993327;28;20032;-77
2021/09/24 04:24:49;;;;;;;12.02;8.80;;;;;;;;;;4993168;28;20511;-77
2021/09/24 04:27:15;;;;;;;12.60;8.85;;;;;;;;;;4993358;28;20030;-77
2021/09/24 04:29:41;;;;;;;12.98;8.50;;;;;;;;;;4992657;28;20567;-77
2021/09/24 04:32:07;;;;;;;10.65;7.97;;;;;;;;;;4992983;28;20034;-77
2021/09/24 04:34:33;;;;;;;14.77;8.20;;;;;;;;;;4989860;28;20034;-77
2021/09/24 04:36:59;;;;;;;13.32;8.75;;;;;;;;;;5012694;28;20519;-77
2021/09/24 04:39:25;;;;;;;11.82;8.73;;;;;;;;;;5011581;28;20034;-77
2021/09/24 04:41:51;;;;;;;11.30;8.32;;;;;;;;;;5005390;28;20044;-77
2021/09/24 04:44:17;;;;;;;13.20;8.65;;;;;;;;;;4998588;28;20034;-77
2021/09/24 04:46:46;;;;;;;11.32;9.20;;;;;;;;;;5012125;28;20077;-77
2021/09/24 04:49:12;;;;;;;11.85;8.70;;;;;;;;;;5011668;28;20044;-77
2021/09/24 04:51:38;;;;;;;13.98;8.93;;;;;;;;;;5012153;28;20034;-77
2021/09/24 04:54:04;;;;;;;11.98;8.95;;;;;;;;;;5011772;28;20033;-77
2021/09/24 04:56:30;;;;;;;12.85;8.82;;;;;;;;;;4993401;28;20038;-76
2021/09/24 04:58:56;;;;;;;12.20;8.88;;;;;;;;;;4995571;28;20117;-77
2021/09/24 05:01:22;;;;;;;12.00;8.85;;;;;;;;;;4992517;28;20039;-76
2021/09/24 05:03:48;;;;;;;11.63;8.55;;;;;;;;;;4975896;28;20027;-76
2021/09/24 05:06:14;;;;;;;17.65;9.10;;;;;;;;;;4992637;28;20109;-76
2021/09/24 05:08:40;;;;;;;13.93;9.70;;;;;;;;;;4992402;28;20511;-76
2021/09/24 05:11:06;;;;;;;13.77;9.07;;;;;;;;;;4991179;28;20117;-77
2021/09/24 05:13:32;;;;;;;14.93;9.65;;;;;;;;;;4992804;28;20076;-77
2021/09/24 05:15:58;;;;;;;15.68;9.15;;;;;;;;;;5011971;28;20034;-77
2021/09/24 05:18:24;;;;;;;14.88;10.07;;;;;;;;;;5012271;28;20032;-77
2021/09/24 05:20:50;;;;;;;13.10;8.75;;;;;;;;;;5005821;28;20046;-77
2021/09/24 05:23:16;;;;;;;16.27;10.20;;;;;;;;;;4975422;28;20399;-77
2021/09/24 05:25:42;;;;;;;14.55;8.95;;;;;;;;;;4995159;28;20026;-77
2021/09/24 05:28:08;;;;;;;12.35;9.25;;;;;;;;;;5014465;28;20054;-77
2021/09/24 05:30:34;;;;;;;13.20;9.75;;;;;;;;;;5013507;28;20045;-77
2021/09/24 05:33:01;;;;;;;13.02;10.00;;;;;;;;;;5011904;28;20029;-77
2021/09/24 05:35:27;;;;;;;12.60;8.85;;;;;;;;;;5011416;28;20122;-77
2021/09/24 05:37:53;;;;;;;15.38;10.02;;;;;;;;;;4994439;28;20073;-76
2021/09/24 05:40:19;;;;;;;16.42;10.38;;;;;;;;;;4997502;28;20438;-77
2021/09/24 05:42:45;;;;;;;14.65;10.07;;;;;;;;;;4994908;28;20034;-77
2021/09/24 05:45:14;;;;;;;15.80;9.70;;;;;;;;;;4995370;28;20423;-77
2021/09/24 05:47:40;;;;;;;16.80;10.05;;;;;;;;;;4976505;28;20423;-77
2021/09/24 05:50:11;;;;;;;11.70;9.18;;;;;;;;;;4994808;28;20029;-76
2021/09/24 05:52:38;;;;;;;16.95;10.35;;;;;;;;;;5013239;28;20425;-76
2021/09/24 05:55:04;;;;;;;16.55;11.00;;;;;;;;;;5012300;28;20060;-76
2021/09/24 05:57:30;;;;;;;15.13;9.60;;;;;;;;;;4977872;28;20038;-76
2021/09/24 05:59:56;;;;;;;23.27;10.50;;;;;;;;;;4999583;28;20027;-78
2021/09/24 06:02:22;;;;;;;32.20;10.38;;;;;;;;;;4974914;28;20022;-78
2021/09/24 06:04:48;;;;;;;16.17;9.32;;;;;;;;;;4992205;28;20018;-76
2021/09/24 06:07:14;;;;;;;11.43;8.73;;;;;;;;;;4992605;28;20093;-76
2021/09/24 06:09:40;;;;;;;13.13;9.13;;;;;;;;;;4991731;28;20422;-77
2021/09/24 06:12:06;;;;;;;11.10;8.15;;;;;;;;;;4975767;28;20034;-78
2021/09/24 06:14:32;;;;;;;12.32;8.32;;;;;;;;;;5000047;28;20461;-75
2021/09/24 06:16:58;;;;;;;12.73;8.55;;;;;;;;;;5011302;28;20074;-76
2021/09/24 06:19:24;;;;;;;12.45;8.57;;;;;;;;;;4992795;28;20088;-75
2021/09/24 06:21:51;;;;;;;11.65;7.60;;;;;;;;;;4991870;28;20027;-75
2021/09/24 06:24:17;;;;;;;10.88;7.55;;;;;;;;;;4997565;28;20030;-78
2021/09/24 06:26:43;;;;;;;10.13;8.00;;;;;;;;;;4996697;28;20026;-76
2021/09/24 06:29:09;;;;;;;13.02;8.30;;;;;;;;;;4977214;28;20129;-75
2021/09/24 06:31:36;;;;;;;9.35;6.70;;;;;;;;;;4995152;28;20037;-75
2021/09/24 06:34:02;;;;;;;11.30;7.75;;;;;;;;;;5001521;28;20413;-75
2021/09/24 06:36:28;;;;;;;11.23;7.72;;;;;;;;;;5015262;28;20034;-77
2021/09/24 06:38:54;;;;;;;11.35;7.13;;;;;;;;;;5013914;28;20030;-76
2021/09/24 06:41:20;;;;;;;10.00;7.22;;;;;;;;;;5011724;28;20037;-75
2021/09/24 06:43:46;;;;;;;12.73;8.65;;;;;;;;;;4995195;28;20052;-78
2021/09/24 06:46:12;;;;;;;15.57;8.60;;;;;;;;;;4993456;28;20077;-77
2021/09/24 06:48:38;;;;;;;9.88;7.25;;;;;;;;;;5001957;28;20088;-76
2021/09/24 06:51:04;;;;;;;11.23;7.90;;;;;;;;;;4994181;28;20037;-76
2021/09/24 06:53:30;;;;;;;10.45;7.43;;;;;;;;;;4995700;28;20030;-77
2021/09/24 06:55:57;;;;;;;10.18;7.80;;;;;;;;;;5008020;28;20125;-77
2021/09/24 06:58:23;;;;;;;13.82;7.97;;;;;;;;;;5014270;28;20049;-79
2021/09/24 07:00:49;;;;;;;10.55;7.63;;;;;;;;;;5015805;28;20021;-76
2021/09/24 07:03:15;;;;;;;12.40;7.78;;;;;;;;;;4998726;28;20029;-77
2021/09/24 07:05:41;;;;;;;9.95;7.65;;;;;;;;;;4996756;28;20534;-79
2021/09/24 07:08:07;;;;;;;10.35;7.85;;;;;;;;;;4997797;28;20061;-77
2021/09/24 07:10:33;;;;;;;10.25;7.57;;;;;;;;;;4978154;28;20094;-77
2021/09/24 07:12:59;;;;;;;9.40;7.13;;;;;;;;;;4971055;28;20498;-77
2021/09/24 07:15:25;;;;;;;9.10;6.50;;;;;;;;;;5010811;28;20022;-77
2021/09/24 07:17:51;;;;;;;9.63;6.70;;;;;;;;;;4989846;28;20093;-77
2021/09/24 07:20:17;;;;;;;9.80;7.70;;;;;;;;;;4992470;28;20503;-77
2021/09/24 07:22:43;;;;;;;9.40;7.13;;;;;;;;;;4980259;28;20029;-77
2021/09/24 07:25:10;;;;;;;11.68;6.68;;;;;;;;;;4998200;28;20026;-77
2021/09/24 07:27:36;;;;;;;9.13;7.07;;;;;;;;;;4972289;28;20117;-77
2021/09/24 07:30:02;;;;;;;10.82;7.40;;;;;;;;;;4987840;28;20076;-77
2021/09/24 07:32:28;;;;;;;9.65;7.43;;;;;;;;;;4964582;28;20049;-78
2021/09/24 07:34:54;;;;;;;9.52;6.53;;;;;;;;;;4976177;28;20022;-78
2021/09/24 07:37:20;;;;;;;8.20;6.32;;;;;;;;;;4978429;28;20161;-78
2021/09/24 07:39:46;;;;;;;10.30;6.95;;;;;;;;;;5003118;28;20029;-78
2021/09/24 07:42:12;;;;;;;11.10;7.28;;;;;;;;;;5005177;28;20036;-78
2021/09/24 07:44:38;;;;;;;9.15;7.13;;;;;;;;;;4978555;28;20031;-78
2021/09/24 07:47:04;;;;;;;8.52;7.07;;;;;;;;;;5013591;28;20030;-78
2021/09/24 07:49:30;;;;;;;9.90;6.97;;;;;;;;;;5014502;28;20067;-78
2021/09/24 07:51:56;;;;;;;10.55;7.63;;;;;;;;;;5006297;28;20125;-78
2021/09/24 07:54:24;;;;;;;11.63;7.80;;;;;;;;;;4995698;28;20085;-78
2021/09/24 07:56:50;;;;;;;10.65;7.57;;;;;;;;;;4985102;28;20040;-78
2021/09/24 07:59:16;;;;;;;10.98;7.00;;;;;;;;;;5015335;28;20057;-78
2021/09/24 08:01:42;;;;;;;12.80;6.90;;;;;;;;;;5009090;28;20089;-78
2021/09/24 08:04:09;;;;;;;12.50;6.82;;;;;;;;;;4994817;28;20376;-77
2021/09/24 08:06:35;;;;;;;7.93;6.70;;;;;;;;;;5000576;28;20455;-78
2021/09/24 08:09:01;;;;;;;7.47;6.32;;;;;;;;;;5013581;28;20514;-77
2021/09/24 08:11:27;;;;;;;8.98;5.75;;;;;;;;;;5009493;28;20030;-78
2021/09/24 08:13:53;;;;;;;11.32;7.32;;;;;;;;;;4994985;28;20105;-77
2021/09/24 08:16:19;;;;;;;7.95;5.80;;;;;;;;;;4996441;28;20098;-77
2021/09/24 08:18:45;;;;;;;8.40;5.32;;;;;;;;;;4995830;28;20033;-78
2021/09/24 08:21:11;;;;;;;7.32;5.70;;;;;;;;;;5011040;28;20061;-79
2021/09/24 08:23:39;;;;;;;7.68;5.25;;;;;;;;;;4993075;28;20030;-78
2021/09/24 08:26:05;;;;;;;8.10;5.50;;;;;;;;;;4977838;28;20053;-79
2021/09/24 08:28:32;;;;;;;6.90;5.85;;;;;;;;;;5012331;28;20022;-78
2021/09/24 08:30:58;;;;;;;6.60;5.50;;;;;;;;;;5011274;28;20061;-78
2021/09/24 08:33:24;;;;;;;9.00;5.82;;;;;;;;;;4992924;28;20093;-79
2021/09/24 08:35:50;;;;;;;7.53;5.35;;;;;;;;;;5010066;28;20034;-79
2021/09/24 08:38:16;;;;;;;9.32;5.70;;;;;;;;;;4975801;28;20502;-78
2021/09/24 08:40:42;;;;;;;6.53;4.95;;;;;;;;;;4992244;28;20122;-78
2021/09/24 08:43:10;;;;;;;8.65;6.03;;;;;;;;;;4992510;28;20144;-78
2021/09/24 08:45:36;;;;;;;9.93;5.75;;;;;;;;;;4975601;28;20041;-78
2021/09/24 08:48:07;;;;;;;6.90;5.40;;;;;;;;;;5002493;28;20064;-78
2021/09/24 08:50:35;;;;;;;7.72;5.53;;;;;;;;;;5003254;28;20398;-78
2021/09/24 08:53:01;;;;;;;8.73;5.18;;;;;;;;;;5010449;28;20040;-78
2021/09/24 08:55:27;;;;;;;8.75;4.82;;;;;;;;;;5013298;28;20401;-78
2021/09/24 08:57:53;;;;;;;5.65;4.50;;;;;;;;;;4995844;28;20033;-78
2021/09/24 09:00:21;;;;;;;5.50;4.38;;;;;;;;;;5007270;28;20037;-76
2021/09/24 09:02:56;;;;;;;9.00;4.00;;;;;;;;;;4996512;28;20026;-78
2021/09/24 09:05:22;;;;;;;7.15;4.72;;;;;;;;;;4995991;28;20028;-76
2021/09/24 09:07:48;;;;;;;11.38;5.03;;;;;;;;;;5008964;28;20037;-76
2021/09/24 09:10:15;;;;;;;6.38;4.43;;;;;;;;;;5011117;28;20022;-76
2021/09/24 09:12:41;;;;;;;7.18;4.85;;;;;;;;;;4996709;28;20113;-76
2021/09/24 09:15:09;;;;;;;7.13;4.43;;;;;;;;;;4975714;28;20065;-76
2021/09/24 09:17:36;;;;;;;5.82;4.18;;;;;;;;;;5008779;28;20029;-76
2021/09/24 09:20:11;;;;;;;10.15;4.13;;;;;;;;;;5013354;28;20034;-76
2021/09/24 09:22:37;;;;;;;5.78;4.47;;;;;;;;;;4999390;28;20031;-76
2021/09/24 09:25:04;;;;;;;5.82;4.68;;;;;;;;;;4994536;28;20045;-76
2021/09/24 09:27:30;;;;;;;6.97;4.43;;;;;;;;;;5007563;28;20033;-76
2021/09/24 09:29:58;;;;;;;7.53;4.80;;;;;;;;;;4996597;28;20030;-76
2021/09/24 09:32:24;;;;;;;7.78;4.05;;;;;;;;;;5010218;28;20025;-77
2021/09/24 09:34:50;;;;;;;6.72;4.70;;;;;;;;;;5017667;28;20026;-76
2021/09/24 09:37:17;;;;;;;6.00;4.78;;;;;;;;;;4991046;28;20121;-77
2021/09/24 09:39:44;;;;;;;5.47;4.25;;;;;;;;;;4979545;28;20030;-77
2021/09/24 09:42:10;;;;;;;9.07;4.13;;;;;;;;;;5001265;28;20043;-76
2021/09/24 09:44:38;;;;;;;6.93;4.20;;;;;;;;;;4994692;28;20115;-77
2021/09/24 09:47:04;;;;;;;7.38;4.53;;;;;;;;;;4978417;28;20022;-77
2021/09/24 09:49:30;;;;;;;6.75;4.15;;;18.90;99.90;;;;;;5001712;28;20037;-76
2021/09/24 09:52:10;;;;;;;8.13;4.18;;;;;;;;;;4988556;28;20041;-76
2021/09/24 09:54:37;;;;;;;7.25;4.38;;;;;;;;;;5015813;28;20030;-77
2021/09/24 09:57:19;;;;;;;6.82;4.53;;;;;;;;;;5006336;28;20037;-76
2021/09/24 09:59:56;;;;;;;7.43;4.45;;;;;;;;;;4999724;28;20031;-76
2021/09/24 10:02:29;;;;;;;4.55;4.07;;;;;;;;;;4979350;28;20514;-78
2021/09/24 10:04:57;;;;;;;6.97;3.88;;;;;;;;;;5015093;28;20620;-77
2021/09/24 10:07:27;;;;;;;8.23;4.38;;;;;;;;;;5002542;28;20035;-76
2021/09/24 10:10:08;;;;;;;7.97;4.30;;;;;;;;;;4995424;28;20027;-77
2021/09/24 10:12:35;;;;;;;4.75;3.83;;;;;;;;;;4983757;28;20372;-76
2021/09/24 10:15:01;;;;;;;5.90;4.80;;;;;;;;;;4996422;28;20125;-76
2021/09/24 10:17:27;;;;;;;6.00;4.72;;;;;;;;;;5003329;28;20030;-78
2021/09/24 10:19:54;;;;;;;6.55;4.10;;;;;;;;;;4996651;28;20041;-78
2021/09/24 10:22:21;;;;;;;5.65;4.38;;;;;;;;;;4993091;28;20030;-77
2021/09/24 10:24:47;;;;;;;5.78;3.60;;;23.90;97.60;;;;;;5018243;28;20030;-77
2021/09/24 10:27:19;;;;;;;7.70;4.00;;;25.10;92.00;;;;;;5013275;28;20084;-76
2021/09/24 10:29:47;;;;;;;4.15;3.50;;;25.00;91.30;;;;;;4999996;28;20068;-78
2021/09/24 10:32:22;;;;;;;10.43;4.53;;;25.60;90.90;;;;;;5007593;28;20049;-77
2021/09/24 10:34:52;;;;;;;19.00;4.32;;;26.20;89.70;;;;;;4987939;28;20065;-77
2021/09/24 10:37:19;;;;;;;3.97;3.13;;;26.30;89.40;;;;;;4989171;28;20410;-77
2021/09/24 10:39:47;;;;;;;7.28;3.50;;;26.20;86.20;;;;;;5013628;28;20416;-77
2021/09/24 10:42:28;;;;;;;6.03;3.42;;;26.10;85.00;;;;;;5003292;28;20038;-77
2021/09/24 10:45:19;;;;;;;6.13;3.42;;;25.90;83.20;;;;;;4995082;28;20150;-77
2021/09/24 10:47:59;;;;;;;5.63;3.80;;;25.80;84.70;;;;;;4994997;28;20041;-77
2021/09/24 10:50:30;;;;;;;11.27;3.45;;;26.40;81.80;;;;;;4994269;28;20044;-76
2021/09/24 10:53:17;;;;;;;5.63;3.30;;;26.10;82.90;;;;;;5011790;28;20075;-77
2021/09/24 10:56:08;;;;;;;5.03;3.15;;;26.10;82.60;;;;;;5014648;28;20022;-75
2021/09/24 10:58:40;;;;;;;9.77;3.35;;;26.20;81.00;;;;;;4982011;28;20684;-75
2021/09/24 11:01:12;;;;;;;3.38;3.00;;;25.50;81.00;;;;;;4994969;28;20052;-77
2021/09/24 11:04:14;;;;;;;6.30;2.95;;;24.80;84.00;;;;;;5009490;28;20038;-77
2021/09/24 11:06:52;;;;;;;4.80;3.08;;;24.90;81.90;;;;;;4991339;28;20080;-78
2021/09/24 11:09:21;;;;;;;6.63;3.08;;;24.60;84.20;;;;;;4981224;28;20026;-77
2021/09/24 11:12:01;;;;;;;9.43;3.38;;;24.90;84.20;;;;;;4988876;28;20089;-77
2021/09/24 11:14:32;;;;;;;8.52;3.10;;;24.80;82.20;;;;;;4993082;28;20014;-77
2021/09/24 11:16:59;;;;;;;4.68;2.70;;;25.60;82.60;;;;;;4996225;28;20034;-76
2021/09/24 11:19:35;;;;;;;7.97;3.45;;;25.70;81.90;;;;;;4994191;28;20080;-76
2021/09/24 11:22:03;;;;;;;6.50;3.50;;;25.70;80.60;;;;;;5001147;28;20117;-76
2021/09/24 11:24:30;;;;;;;7.50;3.40;;;26.30;79.40;;;;;;5013585;28;20026;-76
2021/09/24 11:27:03;;;;;;;6.47;3.20;;;26.10;81.30;;;;;;5001858;28;20026;-76
2021/09/24 11:29:29;;;;;;;7.53;2.92;;;26.30;81.40;;;;;;4992993;28;20018;-76
2021/09/24 11:32:00;;;;;;;8.30;3.05;;;26.20;78.30;;;;;;5002447;28;20038;-76
2021/09/24 11:34:46;;;;;;;5.38;2.75;;;;;;;;;;5011829;28;20605;-76
2021/09/24 11:37:18;;;;;;;8.60;3.08;;;;;;;;;;5003031;28;20045;-76
2021/09/24 11:39:45;;;;;;;4.30;3.10;;;;;;;;;;4977278;28;20117;-76
2021/09/24 11:42:12;;;;;;;7.10;3.20;;;;;;;;;;4999903;28;20077;-76
2021/09/24 11:44:42;;;;;;;4.65;3.08;;;;;;;;;;4994147;28;20133;-76
2021/09/24 11:47:15;;;;;;;5.50;3.03;;;;;;;;;;4995781;28;20077;-76
2021/09/24 11:50:04;;;;;;;7.00;2.50;;;;;;;;;;4993019;28;20116;-76
2021/09/24 11:52:41;;;;;;;9.77;3.00;;;;;;;;;;5006615;28;20088;-76
2021/09/24 11:55:13;;;;;;;5.55;3.28;;;;;;;;;;5003064;28;20045;-77
2021/09/24 11:57:39;;;;;;;7.32;3.17;;;;;;;;;;5008335;28;20113;-77
2021/09/24 12:00:06;;;;;;;5.25;3.47;;;;;;;;;;4995637;28;20109;-75
2021/09/24 12:02:32;;;;;;;6.43;3.08;;;;;;;;;;4989415;28;20030;-76
2021/09/24 12:04:59;;;;;;;6.07;2.88;;;;;;;;;;4990390;28;20026;-75
2021/09/24 12:07:25;;;;;;;3.97;2.97;;;;;;;;;;4993313;28;20038;-75
2021/09/24 12:09:58;;;;;;;5.28;2.90;;;;;;;;;;4993935;28;20034;-73
2021/09/24 12:12:25;;;;;;;3.63;2.90;;;;;;;;;;5005193;28;20505;-76
2021/09/24 12:14:54;;;;;;;3.83;2.90;;;;;;;;;;4994889;28;20699;-73
2021/09/24 12:17:22;;;;;;;6.43;3.00;;;;;;;;;;5003968;28;20113;-75
2021/09/24 12:19:48;;;;;;;8.48;2.90;;;;;;;;;;4991887;28;20093;-74
2021/09/24 12:22:16;;;;;;;4.57;3.03;;;;;;;;;;5003804;28;20030;-74
2021/09/24 12:24:45;;;;;;;4.35;2.92;;;;;;;;;;5010450;28;20505;-73
2021/09/24 12:27:15;;;;;;;4.35;2.50;;;;;;;;;;5000030;28;20392;-73
2021/09/24 12:29:42;;;;;;;4.85;2.97;;;;;;;;;;4991360;28;20077;-73
2021/09/24 12:32:13;;;;;;;5.88;3.00;;;;;;;;;;4993778;28;20034;-74
2021/09/24 12:34:42;;;;;;;5.53;2.75;;;;;;;;;;4992687;28;20038;-74
2021/09/24 12:37:09;;;;;;;7.85;3.10;;;;;;;;;;5002872;28;20028;-73
2021/09/24 12:39:36;;;;;;;7.80;3.08;;;;;;;;;;5011667;28;20038;-74
2021/09/24 12:42:04;;;;;;;4.57;2.97;;;;;;;;;;5008082;28;20402;-73
2021/09/24 12:44:30;;;;;;;5.65;3.05;;;;;;;;;;5012191;28;20030;-74
2021/09/24 12:46:59;;;;;;;6.05;2.88;;;;;;;;;;5010442;28;20025;-73
2021/09/24 12:49:25;;;;;;;3.55;2.70;;;;;;;;;;5000885;28;20032;-73
2021/09/24 12:51:52;;;;;;;9.25;3.22;;;;;;;;;;5003959;28;20026;-73
2021/09/24 12:54:19;;;;;;;6.68;3.20;;;;;;;;;;4970538;28;20483;-74
2021/09/24 12:56:45;;;;;;;6.50;3.58;;;;;;;;;;4999487;28;20028;-73
2021/09/24 12:59:11;;;;;;;5.28;3.38;;;;;;;;;;5011399;28;20100;-73
2021/09/24 13:01:38;;;;;;;4.40;3.30;;;;;;;;;;5004820;28;20043;-74
2021/09/24 13:04:04;;;;;;;5.05;3.47;;;;;;;;;;5004597;28;20112;-73
2021/09/24 13:06:30;;;;;;;9.52;3.30;;;;;;;;;;5008571;28;20030;-73
2021/09/24 13:08:57;;;;;;;6.72;2.70;;;;;;;;;;5011293;28;20498;-74
2021/09/24 13:11:31;;;;;;;5.90;3.45;;;;;;;;;;5007331;28;20034;-73
2021/09/24 13:14:00;;;;;;;3.92;2.88;;;;;;;;;;4991363;28;20029;-78
2021/09/24 13:16:30;;;;;;;4.63;3.25;;;;;;;;;;4996642;28;20045;-77
2021/09/24 13:18:57;;;;;;;3.95;2.70;;;;;;;;;;5010635;28;20033;-78
2021/09/24 13:21:25;;;;;;;4.95;3.20;;;;;;;;;;5006598;28;20034;-78
2021/09/24 13:23:54;;;;;;;6.72;2.88;;;;;;;;;;5001156;28;20021;-77
2021/09/24 13:26:23;;;;;;;4.63;3.00;;;;;;;;;;5006090;28;20027;-78
2021/09/24 13:28:50;;;;;;;5.47;3.20;;;;;;;;;;4991624;28;20168;-78
2021/09/24 13:31:17;;;;;;;4.28;3.33;;;;;;;;;;4994134;28;20025;-77
2021/09/24 13:33:43;;;;;;;4.43;2.75;;;;;;;;;;5014606;28;20079;-77
2021/09/24 13:36:09;;;;;;;7.00;3.33;;;;;;;;;;5013041;28;20057;-77
2021/09/24 13:38:35;;;;;;;5.30;2.78;;;;;;;;;;4995850;28;20471;-77
2021/09/24 13:41:03;;;;;;;4.70;2.70;;;;;;;;;;4995336;28;20089;-78
2021/09/24 13:43:29;;;;;;;5.22;2.47;;;;;;;;;;5004502;28;20030;-77
2021/09/24 13:45:55;;;;;;;9.15;2.97;;;;;;;;;;5008766;28;20108;-77
2021/09/24 13:48:21;;;;;;;3.40;2.78;;;;;;;;;;5004440;28;20030;-78
2021/09/24 13:50:47;;;;;;;3.15;2.78;;;;;;;;;;5015010;28;20026;-78
2021/09/24 13:53:15;;;;;;;3.60;2.95;;;;;;;;;;4996138;28;20386;-77
2021/09/24 13:55:41;;;;;;;6.65;3.20;;;;;;;;;;4996916;28;20018;-78
2021/09/24 13:58:08;;;;;;;4.63;2.95;;;;;;;;;;5012502;28;20474;-78
2021/09/24 14:00:34;;;;;;;6.88;2.88;;;;;;;;;;4999107;28;20105;-78
2021/09/24 14:03:01;;;;;;;4.53;2.55;;;;;;;;;;5016901;28;20026;-78
2021/09/24 14:05:27;;;;;;;5.45;3.00;;;;;;;;;;5004404;28;20031;-78
2021/09/24 14:07:53;;;;;;;3.22;2.92;;;;;;;;;;4979942;28;20034;-77
2021/09/24 14:10:18;;;;;;;4.40;2.53;;;26.40;78.60;;;;;;4997362;28;20027;-78
2021/09/24 14:12:49;;;;;;;7.57;2.80;;;30.00;66.50;;;;;;4997402;28;20084;-78
2021/09/24 14:15:15;;;;;;;6.22;2.38;;;29.70;64.70;;;;;;4997635;28;20018;-78
2021/09/24 14:17:41;;;;;;;4.05;2.90;;;29.60;64.40;;;;;;5012192;28;20041;-78
2021/09/24 14:20:08;;;;;;;3.95;2.45;;;28.50;65.20;;;;;;5016106;28;20034;-78
2021/09/24 14:22:33;;;;;;;4.68;2.55;;;28.60;66.00;;;;;;4986217;28;20125;-78
2021/09/24 14:24:59;;;;;;;5.70;2.70;;;29.40;65.40;;;;;;4995493;28;20046;-78
2021/09/24 14:27:26;;;;;;;5.00;2.50;;;29.90;64.50;;;;;;5009546;28;20406;-78